sensor_id;sensor_type;location;lat;lon;timestamp;P1;durP1;ratioP1;P2;durP2;ratioP2
15102;SDS011;7652;53.584;9.998;2022-10-30T00:00:57;39.60;;;28.23;;
15102;SDS011;7652;53.584;9.998;2022-10-30T00:04:01;41.07;;;30.33;;
15102;SDS011;7652;53.584;9.998;2022-10-30T00:07:04;44.63;;;30.07;;
15102;SDS011;7652;53.584;9.998;2022-10-30T00:10:08;48.00;;;31.93;;
15102;SDS011;7652;53.584;9.998;2022-10-30T00:13:11;48.33;;;30.07;;
15102;SDS011;7652;53.584;9.998;2022-10-30T00:16:15;47.10;;;31.47;;
15102;SDS011;7652;53.584;9.998;2022-10-30T00:19:19;43.50;;;28.93;;
15102;SDS011;7652;53.584;9.998;2022-10-30T00:22:22;42.30;;;29.47;;
15102;SDS011;7652;53.584;9.998;2022-10-30T00:25:26;43.57;;;29.00;;
15102;SDS011;7652;53.584;9.998;2022-10-30T00:28:29;43.90;;;28.67;;
15102;SDS011;7652;53.584;9.998;2022-10-30T00:31:32;39.90;;;26.97;;
15102;SDS011;7652;53.584;9.998;2022-10-30T00:34:36;41.60;;;27.80;;
15102;SDS011;7652;53.584;9.998;2022-10-30T00:37:39;40.13;;;24.77;;
15102;SDS011;7652;53.584;9.998;2022-10-30T00:40:42;38.77;;;26.67;;
15102;SDS011;7652;53.584;9.998;2022-10-30T00:43:45;38.57;;;25.90;;
15102;SDS011;7652;53.584;9.998;2022-10-30T00:46:48;37.33;;;25.13;;
15102;SDS011;7652;53.584;9.998;2022-10-30T00:49:54;37.07;;;24.50;;
15102;SDS011;7652;53.584;9.998;2022-10-30T00:53:01;37.30;;;24.30;;
15102;SDS011;7652;53.584;9.998;2022-10-30T00:56:06;33.60;;;21.83;;
15102;SDS011;7652;53.584;9.998;2022-10-30T00:59:12;30.77;;;19.73;;
15102;SDS011;7652;53.584;9.998;2022-10-30T01:02:19;32.17;;;20.33;;
15102;SDS011;7652;53.584;9.998;2022-10-30T01:05:25;25.40;;;18.67;;
15102;SDS011;7652;53.584;9.998;2022-10-30T01:08:31;27.07;;;17.60;;
15102;SDS011;7652;53.584;9.998;2022-10-30T01:11:35;28.47;;;17.10;;
15102;SDS011;7652;53.584;9.998;2022-10-30T01:14:38;25.27;;;16.93;;
15102;SDS011;7652;53.584;9.998;2022-10-30T01:17:47;24.30;;;15.67;;
15102;SDS011;7652;53.584;9.998;2022-10-30T01:21:06;23.67;;;15.20;;
15102;SDS011;7652;53.584;9.998;2022-10-30T01:24:24;26.60;;;17.10;;
15102;SDS011;7652;53.584;9.998;2022-10-30T01:27:36;25.20;;;15.80;;
15102;SDS011;7652;53.584;9.998;2022-10-30T01:30:48;22.23;;;16.13;;
15102;SDS011;7652;53.584;9.998;2022-10-30T01:34:07;19.77;;;13.60;;
15102;SDS011;7652;53.584;9.998;2022-10-30T01:37:21;26.00;;;15.67;;
15102;SDS011;7652;53.584;9.998;2022-10-30T01:40:29;14.80;;;10.33;;
15102;SDS011;7652;53.584;9.998;2022-10-30T01:43:34;19.53;;;12.63;;
15102;SDS011;7652;53.584;9.998;2022-10-30T01:46:41;19.77;;;12.60;;
15102;SDS011;7652;53.584;9.998;2022-10-30T01:49:58;17.97;;;11.33;;
15102;SDS011;7652;53.584;9.998;2022-10-30T01:53:14;16.90;;;9.90;;
15102;SDS011;7652;53.584;9.998;2022-10-30T01:56:27;17.40;;;9.73;;
15102;SDS011;7652;53.584;9.998;2022-10-30T01:59:41;14.63;;;9.20;;
15102;SDS011;7652;53.584;9.998;2022-10-30T02:02:48;16.03;;;9.80;;
15102;SDS011;7652;53.584;9.998;2022-10-30T02:05:53;15.63;;;10.20;;
15102;SDS011;7652;53.584;9.998;2022-10-30T02:08:57;18.23;;;9.60;;
15102;SDS011;7652;53.584;9.998;2022-10-30T02:12:00;15.10;;;9.47;;
15102;SDS011;7652;53.584;9.998;2022-10-30T02:15:04;15.73;;;8.83;;
15102;SDS011;7652;53.584;9.998;2022-10-30T02:18:08;12.60;;;9.13;;
15102;SDS011;7652;53.584;9.998;2022-10-30T02:21:13;13.60;;;7.90;;
15102;SDS011;7652;53.584;9.998;2022-10-30T02:24:16;13.13;;;8.37;;
15102;SDS011;7652;53.584;9.998;2022-10-30T02:27:19;13.03;;;8.13;;
15102;SDS011;7652;53.584;9.998;2022-10-30T02:30:22;17.37;;;9.30;;
15102;SDS011;7652;53.584;9.998;2022-10-30T02:33:25;14.73;;;8.40;;
15102;SDS011;7652;53.584;9.998;2022-10-30T02:36:30;10.43;;;8.10;;
15102;SDS011;7652;53.584;9.998;2022-10-30T02:39:33;14.33;;;7.83;;
15102;SDS011;7652;53.584;9.998;2022-10-30T02:42:36;12.10;;;7.73;;
15102;SDS011;7652;53.584;9.998;2022-10-30T02:45:39;12.53;;;8.50;;
15102;SDS011;7652;53.584;9.998;2022-10-30T02:48:42;13.13;;;8.27;;
15102;SDS011;7652;53.584;9.998;2022-10-30T02:51:46;12.47;;;7.83;;
15102;SDS011;7652;53.584;9.998;2022-10-30T02:54:49;11.47;;;7.60;;
15102;SDS011;7652;53.584;9.998;2022-10-30T02:57:52;11.43;;;7.63;;
15102;SDS011;7652;53.584;9.998;2022-10-30T03:00:55;12.10;;;7.00;;
15102;SDS011;7652;53.584;9.998;2022-10-30T03:03:58;11.30;;;7.30;;
15102;SDS011;7652;53.584;9.998;2022-10-30T03:07:03;12.97;;;7.80;;
15102;SDS011;7652;53.584;9.998;2022-10-30T03:10:06;11.43;;;7.97;;
15102;SDS011;7652;53.584;9.998;2022-10-30T03:13:09;13.07;;;7.37;;
15102;SDS011;7652;53.584;9.998;2022-10-30T03:16:13;12.47;;;8.23;;
15102;SDS011;7652;53.584;9.998;2022-10-30T03:19:17;9.40;;;6.83;;
15102;SDS011;7652;53.584;9.998;2022-10-30T03:22:22;15.30;;;8.00;;
15102;SDS011;7652;53.584;9.998;2022-10-30T03:25:25;10.30;;;7.20;;
15102;SDS011;7652;53.584;9.998;2022-10-30T03:28:28;9.80;;;7.57;;
15102;SDS011;7652;53.584;9.998;2022-10-30T03:31:33;10.13;;;7.47;;
15102;SDS011;7652;53.584;9.998;2022-10-30T03:34:36;12.93;;;7.63;;
15102;SDS011;7652;53.584;9.998;2022-10-30T03:37:40;11.87;;;7.50;;
15102;SDS011;7652;53.584;9.998;2022-10-30T03:40:43;13.87;;;7.03;;
15102;SDS011;7652;53.584;9.998;2022-10-30T03:43:46;12.80;;;6.83;;
15102;SDS011;7652;53.584;9.998;2022-10-30T03:46:49;11.47;;;6.80;;
15102;SDS011;7652;53.584;9.998;2022-10-30T03:49:53;8.90;;;6.77;;
15102;SDS011;7652;53.584;9.998;2022-10-30T03:52:58;12.17;;;7.23;;
15102;SDS011;7652;53.584;9.998;2022-10-30T03:56:02;12.87;;;7.27;;
15102;SDS011;7652;53.584;9.998;2022-10-30T03:59:06;9.53;;;7.43;;
15102;SDS011;7652;53.584;9.998;2022-10-30T04:02:10;11.20;;;7.30;;
15102;SDS011;7652;53.584;9.998;2022-10-30T04:05:14;9.63;;;6.67;;
15102;SDS011;7652;53.584;9.998;2022-10-30T04:08:20;10.83;;;7.40;;
15102;SDS011;7652;53.584;9.998;2022-10-30T04:11:23;7.73;;;6.60;;
15102;SDS011;7652;53.584;9.998;2022-10-30T04:14:26;9.53;;;6.33;;
15102;SDS011;7652;53.584;9.998;2022-10-30T04:17:29;10.30;;;6.97;;
15102;SDS011;7652;53.584;9.998;2022-10-30T04:20:32;10.87;;;6.53;;
15102;SDS011;7652;53.584;9.998;2022-10-30T04:23:36;10.33;;;6.70;;
15102;SDS011;7652;53.584;9.998;2022-10-30T04:26:39;12.27;;;6.27;;
15102;SDS011;7652;53.584;9.998;2022-10-30T04:29:42;7.60;;;6.40;;
15102;SDS011;7652;53.584;9.998;2022-10-30T04:32:46;13.83;;;6.53;;
15102;SDS011;7652;53.584;9.998;2022-10-30T04:35:49;12.87;;;6.37;;
15102;SDS011;7652;53.584;9.998;2022-10-30T04:38:53;9.40;;;6.70;;
15102;SDS011;7652;53.584;9.998;2022-10-30T04:41:56;9.43;;;6.83;;
15102;SDS011;7652;53.584;9.998;2022-10-30T04:44:59;10.40;;;6.53;;
15102;SDS011;7652;53.584;9.998;2022-10-30T04:48:06;9.03;;;7.13;;
15102;SDS011;7652;53.584;9.998;2022-10-30T04:51:11;9.17;;;6.77;;
15102;SDS011;7652;53.584;9.998;2022-10-30T04:54:16;10.53;;;6.13;;
15102;SDS011;7652;53.584;9.998;2022-10-30T04:57:19;8.63;;;6.40;;
15102;SDS011;7652;53.584;9.998;2022-10-30T05:00:22;9.87;;;6.53;;
15102;SDS011;7652;53.584;9.998;2022-10-30T05:03:25;8.50;;;6.43;;
15102;SDS011;7652;53.584;9.998;2022-10-30T05:06:28;8.33;;;6.20;;
15102;SDS011;7652;53.584;9.998;2022-10-30T05:09:33;10.93;;;6.63;;
15102;SDS011;7652;53.584;9.998;2022-10-30T05:12:36;9.77;;;6.17;;
15102;SDS011;7652;53.584;9.998;2022-10-30T05:15:39;9.00;;;6.63;;
15102;SDS011;7652;53.584;9.998;2022-10-30T05:18:42;8.60;;;6.57;;
15102;SDS011;7652;53.584;9.998;2022-10-30T05:21:45;10.07;;;6.60;;
15102;SDS011;7652;53.584;9.998;2022-10-30T05:24:49;9.60;;;6.60;;
15102;SDS011;7652;53.584;9.998;2022-10-30T05:27:56;10.33;;;6.40;;
15102;SDS011;7652;53.584;9.998;2022-10-30T05:31:00;10.13;;;6.27;;
15102;SDS011;7652;53.584;9.998;2022-10-30T05:34:03;9.03;;;6.43;;
15102;SDS011;7652;53.584;9.998;2022-10-30T05:37:08;7.50;;;6.33;;
15102;SDS011;7652;53.584;9.998;2022-10-30T05:40:12;9.20;;;6.63;;
15102;SDS011;7652;53.584;9.998;2022-10-30T05:43:15;12.30;;;6.07;;
15102;SDS011;7652;53.584;9.998;2022-10-30T05:46:18;7.77;;;5.90;;
15102;SDS011;7652;53.584;9.998;2022-10-30T05:49:21;9.20;;;6.07;;
15102;SDS011;7652;53.584;9.998;2022-10-30T05:52:24;10.57;;;6.17;;
15102;SDS011;7652;53.584;9.998;2022-10-30T05:55:28;10.53;;;6.30;;
15102;SDS011;7652;53.584;9.998;2022-10-30T05:58:32;8.60;;;5.90;;
15102;SDS011;7652;53.584;9.998;2022-10-30T06:01:35;8.40;;;5.77;;
15102;SDS011;7652;53.584;9.998;2022-10-30T06:04:38;9.30;;;6.03;;
15102;SDS011;7652;53.584;9.998;2022-10-30T06:07:41;8.47;;;6.27;;
15102;SDS011;7652;53.584;9.998;2022-10-30T06:10:45;9.00;;;5.93;;
15102;SDS011;7652;53.584;9.998;2022-10-30T06:13:48;6.43;;;5.70;;
15102;SDS011;7652;53.584;9.998;2022-10-30T06:16:51;8.60;;;6.50;;
15102;SDS011;7652;53.584;9.998;2022-10-30T06:19:54;9.80;;;6.47;;
15102;SDS011;7652;53.584;9.998;2022-10-30T06:22:58;9.47;;;6.30;;
15102;SDS011;7652;53.584;9.998;2022-10-30T06:26:04;7.77;;;6.03;;
15102;SDS011;7652;53.584;9.998;2022-10-30T06:29:07;10.93;;;6.70;;
15102;SDS011;7652;53.584;9.998;2022-10-30T06:32:10;10.57;;;6.57;;
15102;SDS011;7652;53.584;9.998;2022-10-30T06:35:13;7.37;;;5.80;;
15102;SDS011;7652;53.584;9.998;2022-10-30T06:38:16;8.47;;;6.37;;
15102;SDS011;7652;53.584;9.998;2022-10-30T06:41:21;12.07;;;6.10;;
15102;SDS011;7652;53.584;9.998;2022-10-30T06:44:30;10.30;;;6.30;;
15102;SDS011;7652;53.584;9.998;2022-10-30T06:47:33;7.13;;;5.80;;
15102;SDS011;7652;53.584;9.998;2022-10-30T06:50:36;9.30;;;6.63;;
15102;SDS011;7652;53.584;9.998;2022-10-30T06:53:39;9.67;;;6.50;;
15102;SDS011;7652;53.584;9.998;2022-10-30T06:56:46;8.70;;;6.50;;
15102;SDS011;7652;53.584;9.998;2022-10-30T06:59:51;9.17;;;6.80;;
15102;SDS011;7652;53.584;9.998;2022-10-30T07:02:57;8.80;;;6.30;;
15102;SDS011;7652;53.584;9.998;2022-10-30T07:06:02;8.23;;;5.87;;
15102;SDS011;7652;53.584;9.998;2022-10-30T07:09:05;8.33;;;5.80;;
15102;SDS011;7652;53.584;9.998;2022-10-30T07:12:10;12.60;;;6.37;;
15102;SDS011;7652;53.584;9.998;2022-10-30T07:15:13;8.13;;;6.20;;
15102;SDS011;7652;53.584;9.998;2022-10-30T07:18:16;8.70;;;6.03;;
15102;SDS011;7652;53.584;9.998;2022-10-30T07:21:19;9.80;;;6.00;;
15102;SDS011;7652;53.584;9.998;2022-10-30T07:24:22;10.13;;;6.20;;
15102;SDS011;7652;53.584;9.998;2022-10-30T07:27:26;9.83;;;6.40;;
15102;SDS011;7652;53.584;9.998;2022-10-30T07:30:29;10.43;;;6.57;;
15102;SDS011;7652;53.584;9.998;2022-10-30T07:33:32;8.17;;;6.00;;
15102;SDS011;7652;53.584;9.998;2022-10-30T07:36:35;9.40;;;6.23;;
15102;SDS011;7652;53.584;9.998;2022-10-30T07:39:38;9.17;;;7.10;;
15102;SDS011;7652;53.584;9.998;2022-10-30T07:42:42;12.57;;;6.53;;
15102;SDS011;7652;53.584;9.998;2022-10-30T07:45:45;8.97;;;6.70;;
15102;SDS011;7652;53.584;9.998;2022-10-30T07:48:48;9.23;;;6.10;;
15102;SDS011;7652;53.584;9.998;2022-10-30T07:51:51;10.03;;;7.17;;
15102;SDS011;7652;53.584;9.998;2022-10-30T07:54:55;11.80;;;6.50;;
15102;SDS011;7652;53.584;9.998;2022-10-30T07:57:59;9.77;;;7.40;;
15102;SDS011;7652;53.584;9.998;2022-10-30T08:01:02;10.57;;;7.40;;
15102;SDS011;7652;53.584;9.998;2022-10-30T08:04:05;12.63;;;7.40;;
15102;SDS011;7652;53.584;9.998;2022-10-30T08:07:12;11.23;;;6.83;;
15102;SDS011;7652;53.584;9.998;2022-10-30T08:10:15;9.63;;;7.10;;
15102;SDS011;7652;53.584;9.998;2022-10-30T08:13:20;15.00;;;7.57;;
15102;SDS011;7652;53.584;9.998;2022-10-30T08:16:23;13.63;;;7.17;;
15102;SDS011;7652;53.584;9.998;2022-10-30T08:19:26;8.30;;;6.63;;
15102;SDS011;7652;53.584;9.998;2022-10-30T08:22:29;10.43;;;6.23;;
15102;SDS011;7652;53.584;9.998;2022-10-30T08:25:32;12.50;;;6.90;;
15102;SDS011;7652;53.584;9.998;2022-10-30T08:28:36;11.67;;;6.83;;
15102;SDS011;7652;53.584;9.998;2022-10-30T08:31:39;10.00;;;6.23;;
15102;SDS011;7652;53.584;9.998;2022-10-30T08:34:42;9.03;;;6.37;;
15102;SDS011;7652;53.584;9.998;2022-10-30T08:37:45;7.00;;;6.30;;
15102;SDS011;7652;53.584;9.998;2022-10-30T08:40:48;11.17;;;7.23;;
15102;SDS011;7652;53.584;9.998;2022-10-30T08:43:52;13.33;;;7.00;;
15102;SDS011;7652;53.584;9.998;2022-10-30T08:46:55;10.93;;;7.23;;
15102;SDS011;7652;53.584;9.998;2022-10-30T08:49:58;8.83;;;5.83;;
15102;SDS011;7652;53.584;9.998;2022-10-30T08:53:02;8.30;;;6.17;;
15102;SDS011;7652;53.584;9.998;2022-10-30T08:56:06;11.47;;;6.17;;
15102;SDS011;7652;53.584;9.998;2022-10-30T08:59:10;13.37;;;7.03;;
15102;SDS011;7652;53.584;9.998;2022-10-30T09:02:20;10.33;;;6.40;;
15102;SDS011;7652;53.584;9.998;2022-10-30T09:05:23;7.20;;;5.90;;
15102;SDS011;7652;53.584;9.998;2022-10-30T09:08:27;9.93;;;5.93;;
15102;SDS011;7652;53.584;9.998;2022-10-30T09:11:30;8.87;;;5.60;;
15102;SDS011;7652;53.584;9.998;2022-10-30T09:14:34;9.87;;;6.00;;
15102;SDS011;7652;53.584;9.998;2022-10-30T09:17:37;7.77;;;6.00;;
15102;SDS011;7652;53.584;9.998;2022-10-30T09:20:40;10.73;;;6.17;;
15102;SDS011;7652;53.584;9.998;2022-10-30T09:23:43;9.27;;;5.80;;
15102;SDS011;7652;53.584;9.998;2022-10-30T09:26:46;13.57;;;6.27;;
15102;SDS011;7652;53.584;9.998;2022-10-30T09:29:51;12.73;;;5.93;;
15102;SDS011;7652;53.584;9.998;2022-10-30T09:32:54;11.13;;;5.83;;
15102;SDS011;7652;53.584;9.998;2022-10-30T09:35:58;8.20;;;6.03;;
15102;SDS011;7652;53.584;9.998;2022-10-30T09:39:02;7.93;;;5.90;;
15102;SDS011;7652;53.584;9.998;2022-10-30T09:42:20;12.03;;;6.33;;
15102;SDS011;7652;53.584;9.998;2022-10-30T09:49:26;12.90;;;6.23;;
15102;SDS011;7652;53.584;9.998;2022-10-30T09:52:38;9.63;;;6.10;;
15102;SDS011;7652;53.584;9.998;2022-10-30T09:55:50;10.37;;;6.43;;
15102;SDS011;7652;53.584;9.998;2022-10-30T09:59:01;12.03;;;6.10;;
15102;SDS011;7652;53.584;9.998;2022-10-30T10:02:16;9.73;;;5.80;;
15102;SDS011;7652;53.584;9.998;2022-10-30T10:05:31;11.57;;;6.57;;
15102;SDS011;7652;53.584;9.998;2022-10-30T10:08:43;8.53;;;5.73;;
15102;SDS011;7652;53.584;9.998;2022-10-30T10:11:50;8.27;;;5.87;;
15102;SDS011;7652;53.584;9.998;2022-10-30T10:14:56;8.03;;;5.73;;
15102;SDS011;7652;53.584;9.998;2022-10-30T10:18:03;10.50;;;5.87;;
15102;SDS011;7652;53.584;9.998;2022-10-30T10:21:20;16.20;;;6.50;;
15102;SDS011;7652;53.584;9.998;2022-10-30T10:24:27;9.83;;;5.80;;
15102;SDS011;7652;53.584;9.998;2022-10-30T10:27:38;9.47;;;6.20;;
15102;SDS011;7652;53.584;9.998;2022-10-30T10:30:54;8.23;;;5.53;;
15102;SDS011;7652;53.584;9.998;2022-10-30T10:34:12;8.83;;;5.70;;
15102;SDS011;7652;53.584;9.998;2022-10-30T10:37:30;12.60;;;5.93;;
15102;SDS011;7652;53.584;9.998;2022-10-30T10:40:44;11.43;;;5.93;;
15102;SDS011;7652;53.584;9.998;2022-10-30T10:43:59;10.40;;;5.77;;
15102;SDS011;7652;53.584;9.998;2022-10-30T10:47:24;9.77;;;6.37;;
15102;SDS011;7652;53.584;9.998;2022-10-30T10:50:40;9.73;;;6.00;;
15102;SDS011;7652;53.584;9.998;2022-10-30T10:53:51;9.80;;;5.90;;
15102;SDS011;7652;53.584;9.998;2022-10-30T10:57:00;12.00;;;6.23;;
15102;SDS011;7652;53.584;9.998;2022-10-30T11:00:07;8.93;;;5.70;;
15102;SDS011;7652;53.584;9.998;2022-10-30T11:03:16;13.37;;;6.20;;
15102;SDS011;7652;53.584;9.998;2022-10-30T11:06:26;9.30;;;5.60;;
15102;SDS011;7652;53.584;9.998;2022-10-30T11:09:31;11.40;;;5.33;;
15102;SDS011;7652;53.584;9.998;2022-10-30T11:12:34;8.63;;;5.03;;
15102;SDS011;7652;53.584;9.998;2022-10-30T11:15:46;9.20;;;4.70;;
15102;SDS011;7652;53.584;9.998;2022-10-30T11:18:56;11.97;;;5.27;;
15102;SDS011;7652;53.584;9.998;2022-10-30T11:22:02;8.47;;;4.80;;
15102;SDS011;7652;53.584;9.998;2022-10-30T11:25:17;7.17;;;4.83;;
15102;SDS011;7652;53.584;9.998;2022-10-30T11:28:32;8.70;;;4.70;;
15102;SDS011;7652;53.584;9.998;2022-10-30T11:31:40;9.60;;;5.10;;
15102;SDS011;7652;53.584;9.998;2022-10-30T11:34:44;7.43;;;4.47;;
15102;SDS011;7652;53.584;9.998;2022-10-30T11:37:49;9.97;;;4.50;;
15102;SDS011;7652;53.584;9.998;2022-10-30T11:40:53;8.13;;;4.33;;
15102;SDS011;7652;53.584;9.998;2022-10-30T11:43:56;6.60;;;4.63;;
15102;SDS011;7652;53.584;9.998;2022-10-30T11:46:59;5.90;;;3.87;;
15102;SDS011;7652;53.584;9.998;2022-10-30T11:50:03;9.30;;;4.17;;
15102;SDS011;7652;53.584;9.998;2022-10-30T11:53:10;10.43;;;4.20;;
15102;SDS011;7652;53.584;9.998;2022-10-30T11:56:21;7.68;;;3.95;;
15102;SDS011;7652;53.584;9.998;2022-10-30T11:59:24;8.35;;;3.60;;
15102;SDS011;7652;53.584;9.998;2022-10-30T12:02:28;7.40;;;4.53;;
15102;SDS011;7652;53.584;9.998;2022-10-30T12:05:33;6.80;;;3.78;;
15102;SDS011;7652;53.584;9.998;2022-10-30T12:08:40;5.95;;;4.50;;
15102;SDS011;7652;53.584;9.998;2022-10-30T12:11:44;7.95;;;4.65;;
15102;SDS011;7652;53.584;9.998;2022-10-30T12:14:49;5.18;;;3.30;;
15102;SDS011;7652;53.584;9.998;2022-10-30T12:17:53;8.73;;;3.83;;
15102;SDS011;7652;53.584;9.998;2022-10-30T12:20:59;6.30;;;4.55;;
15102;SDS011;7652;53.584;9.998;2022-10-30T12:24:06;5.45;;;4.63;;
15102;SDS011;7652;53.584;9.998;2022-10-30T12:27:18;6.22;;;3.92;;
15102;SDS011;7652;53.584;9.998;2022-10-30T12:30:23;5.10;;;3.63;;
15102;SDS011;7652;53.584;9.998;2022-10-30T12:33:31;6.95;;;4.72;;
15102;SDS011;7652;53.584;9.998;2022-10-30T12:36:40;4.25;;;3.65;;
15102;SDS011;7652;53.584;9.998;2022-10-30T12:39:51;8.10;;;4.13;;
15102;SDS011;7652;53.584;9.998;2022-10-30T12:43:00;7.28;;;4.18;;
15102;SDS011;7652;53.584;9.998;2022-10-30T12:46:13;6.68;;;3.88;;
15102;SDS011;7652;53.584;9.998;2022-10-30T12:49:24;4.43;;;4.03;;
15102;SDS011;7652;53.584;9.998;2022-10-30T12:52:38;6.60;;;4.00;;
15102;SDS011;7652;53.584;9.998;2022-10-30T12:55:48;7.78;;;4.00;;
15102;SDS011;7652;53.584;9.998;2022-10-30T12:58:56;10.13;;;4.80;;
15102;SDS011;7652;53.584;9.998;2022-10-30T13:02:25;7.47;;;3.70;;
15102;SDS011;7652;53.584;9.998;2022-10-30T13:05:36;7.27;;;3.87;;
15102;SDS011;7652;53.584;9.998;2022-10-30T13:08:44;6.00;;;4.10;;
15102;SDS011;7652;53.584;9.998;2022-10-30T13:11:59;7.33;;;3.63;;
15102;SDS011;7652;53.584;9.998;2022-10-30T13:15:08;8.40;;;4.63;;
15102;SDS011;7652;53.584;9.998;2022-10-30T13:18:19;9.27;;;4.63;;
15102;SDS011;7652;53.584;9.998;2022-10-30T13:21:25;12.80;;;5.67;;
15102;SDS011;7652;53.584;9.998;2022-10-30T13:24:37;11.93;;;6.00;;
15102;SDS011;7652;53.584;9.998;2022-10-30T13:27:50;16.40;;;8.50;;
15102;SDS011;7652;53.584;9.998;2022-10-30T13:30:58;8.80;;;4.90;;
15102;SDS011;7652;53.584;9.998;2022-10-30T13:34:07;9.77;;;5.60;;
15102;SDS011;7652;53.584;9.998;2022-10-30T13:37:26;5.50;;;3.73;;
15102;SDS011;7652;53.584;9.998;2022-10-30T13:40:38;8.77;;;4.93;;
15102;SDS011;7652;53.584;9.998;2022-10-30T13:43:46;9.57;;;5.00;;
15102;SDS011;7652;53.584;9.998;2022-10-30T13:46:58;9.37;;;5.97;;
15102;SDS011;7652;53.584;9.998;2022-10-30T13:50:18;9.57;;;6.37;;
15102;SDS011;7652;53.584;9.998;2022-10-30T13:53:30;16.50;;;7.90;;
15102;SDS011;7652;53.584;9.998;2022-10-30T13:56:37;12.57;;;5.37;;
15102;SDS011;7652;53.584;9.998;2022-10-30T13:59:45;10.30;;;5.07;;
15102;SDS011;7652;53.584;9.998;2022-10-30T14:03:00;10.07;;;5.13;;
15102;SDS011;7652;53.584;9.998;2022-10-30T14:06:20;12.90;;;5.60;;
15102;SDS011;7652;53.584;9.998;2022-10-30T14:09:28;7.67;;;4.53;;
15102;SDS011;7652;53.584;9.998;2022-10-30T14:12:42;8.40;;;4.50;;
15102;SDS011;7652;53.584;9.998;2022-10-30T14:15:55;12.43;;;4.30;;
15102;SDS011;7652;53.584;9.998;2022-10-30T14:19:02;6.90;;;4.73;;
15102;SDS011;7652;53.584;9.998;2022-10-30T14:22:18;9.47;;;5.20;;
15102;SDS011;7652;53.584;9.998;2022-10-30T14:25:25;6.77;;;4.83;;
15102;SDS011;7652;53.584;9.998;2022-10-30T14:28:28;11.13;;;4.83;;
15102;SDS011;7652;53.584;9.998;2022-10-30T14:31:33;9.63;;;4.60;;
15102;SDS011;7652;53.584;9.998;2022-10-30T14:34:41;7.23;;;4.60;;
15102;SDS011;7652;53.584;9.998;2022-10-30T14:37:54;8.30;;;4.50;;
15102;SDS011;7652;53.584;9.998;2022-10-30T14:41:01;7.80;;;4.80;;
15102;SDS011;7652;53.584;9.998;2022-10-30T14:47:54;5.70;;;4.40;;
15102;SDS011;7652;53.584;9.998;2022-10-30T14:51:02;7.57;;;4.60;;
15102;SDS011;7652;53.584;9.998;2022-10-30T14:54:15;11.03;;;5.40;;
15102;SDS011;7652;53.584;9.998;2022-10-30T14:57:43;8.53;;;5.13;;
15102;SDS011;7652;53.584;9.998;2022-10-30T15:00:49;7.83;;;4.97;;
15102;SDS011;7652;53.584;9.998;2022-10-30T15:04:01;10.03;;;5.20;;
15102;SDS011;7652;53.584;9.998;2022-10-30T15:07:15;6.07;;;4.43;;
15102;SDS011;7652;53.584;9.998;2022-10-30T15:10:24;11.43;;;4.70;;
15102;SDS011;7652;53.584;9.998;2022-10-30T15:13:32;11.40;;;5.10;;
15102;SDS011;7652;53.584;9.998;2022-10-30T15:16:37;10.80;;;4.90;;
15102;SDS011;7652;53.584;9.998;2022-10-30T15:19:43;8.20;;;4.83;;
15102;SDS011;7652;53.584;9.998;2022-10-30T15:22:46;8.40;;;4.93;;
15102;SDS011;7652;53.584;9.998;2022-10-30T15:25:54;6.63;;;4.83;;
15102;SDS011;7652;53.584;9.998;2022-10-30T15:29:10;8.27;;;4.90;;
15102;SDS011;7652;53.584;9.998;2022-10-30T15:32:18;7.07;;;4.90;;
15102;SDS011;7652;53.584;9.998;2022-10-30T15:35:24;8.90;;;5.43;;
15102;SDS011;7652;53.584;9.998;2022-10-30T15:38:29;8.33;;;5.27;;
15102;SDS011;7652;53.584;9.998;2022-10-30T15:41:33;11.70;;;5.40;;
15102;SDS011;7652;53.584;9.998;2022-10-30T15:44:42;7.13;;;4.90;;
15102;SDS011;7652;53.584;9.998;2022-10-30T15:47:47;8.13;;;5.20;;
15102;SDS011;7652;53.584;9.998;2022-10-30T15:51:01;9.80;;;5.07;;
15102;SDS011;7652;53.584;9.998;2022-10-30T15:54:08;9.10;;;5.40;;
15102;SDS011;7652;53.584;9.998;2022-10-30T15:57:15;9.40;;;5.73;;
15102;SDS011;7652;53.584;9.998;2022-10-30T16:00:53;9.97;;;5.50;;
15102;SDS011;7652;53.584;9.998;2022-10-30T16:03:57;9.47;;;5.90;;
15102;SDS011;7652;53.584;9.998;2022-10-30T16:07:17;8.00;;;5.77;;
15102;SDS011;7652;53.584;9.998;2022-10-30T16:10:22;11.87;;;5.93;;
15102;SDS011;7652;53.584;9.998;2022-10-30T16:13:27;12.17;;;6.87;;
15102;SDS011;7652;53.584;9.998;2022-10-30T16:16:31;9.17;;;6.57;;
15102;SDS011;7652;53.584;9.998;2022-10-30T16:19:37;8.77;;;6.37;;
15102;SDS011;7652;53.584;9.998;2022-10-30T16:22:43;15.77;;;6.37;;
15102;SDS011;7652;53.584;9.998;2022-10-30T16:25:52;13.87;;;6.27;;
15102;SDS011;7652;53.584;9.998;2022-10-30T16:28:56;10.70;;;7.10;;
15102;SDS011;7652;53.584;9.998;2022-10-30T16:32:05;9.83;;;6.70;;
15102;SDS011;7652;53.584;9.998;2022-10-30T16:35:14;8.77;;;5.90;;
15102;SDS011;7652;53.584;9.998;2022-10-30T16:38:18;7.43;;;6.33;;
15102;SDS011;7652;53.584;9.998;2022-10-30T16:41:22;6.67;;;5.97;;
15102;SDS011;7652;53.584;9.998;2022-10-30T16:44:33;9.70;;;6.17;;
15102;SDS011;7652;53.584;9.998;2022-10-30T16:47:37;10.93;;;6.87;;
15102;SDS011;7652;53.584;9.998;2022-10-30T16:50:41;11.50;;;7.13;;
15102;SDS011;7652;53.584;9.998;2022-10-30T16:53:46;11.13;;;6.23;;
15102;SDS011;7652;53.584;9.998;2022-10-30T16:56:51;13.03;;;6.33;;
15102;SDS011;7652;53.584;9.998;2022-10-30T16:59:56;10.67;;;6.17;;
15102;SDS011;7652;53.584;9.998;2022-10-30T17:03:05;10.13;;;6.40;;
15102;SDS011;7652;53.584;9.998;2022-10-30T17:06:23;11.10;;;5.80;;
15102;SDS011;7652;53.584;9.998;2022-10-30T17:09:29;7.70;;;6.13;;
15102;SDS011;7652;53.584;9.998;2022-10-30T17:12:37;10.57;;;6.50;;
15102;SDS011;7652;53.584;9.998;2022-10-30T17:15:40;13.30;;;7.43;;
15102;SDS011;7652;53.584;9.998;2022-10-30T17:18:45;11.20;;;8.20;;
15102;SDS011;7652;53.584;9.998;2022-10-30T17:21:49;12.00;;;7.03;;
15102;SDS011;7652;53.584;9.998;2022-10-30T17:24:54;12.20;;;7.87;;
15102;SDS011;7652;53.584;9.998;2022-10-30T17:27:58;14.17;;;7.70;;
15102;SDS011;7652;53.584;9.998;2022-10-30T17:34:24;14.23;;;10.80;;
15102;SDS011;7652;53.584;9.998;2022-10-30T17:37:27;10.10;;;8.33;;
15102;SDS011;7652;53.584;9.998;2022-10-30T17:40:32;12.77;;;8.43;;
15102;SDS011;7652;53.584;9.998;2022-10-30T17:43:46;13.13;;;8.13;;
15102;SDS011;7652;53.584;9.998;2022-10-30T17:46:51;13.17;;;8.67;;
15102;SDS011;7652;53.584;9.998;2022-10-30T17:49:54;9.70;;;7.00;;
15102;SDS011;7652;53.584;9.998;2022-10-30T17:52:57;10.93;;;7.37;;
15102;SDS011;7652;53.584;9.998;2022-10-30T17:56:04;14.47;;;10.13;;
15102;SDS011;7652;53.584;9.998;2022-10-30T17:59:13;15.50;;;9.83;;
15102;SDS011;7652;53.584;9.998;2022-10-30T18:02:16;16.33;;;9.73;;
15102;SDS011;7652;53.584;9.998;2022-10-30T18:05:21;14.07;;;8.63;;
15102;SDS011;7652;53.584;9.998;2022-10-30T18:08:30;11.57;;;7.80;;
15102;SDS011;7652;53.584;9.998;2022-10-30T18:11:34;15.40;;;7.90;;
15102;SDS011;7652;53.584;9.998;2022-10-30T18:14:37;10.93;;;7.73;;
15102;SDS011;7652;53.584;9.998;2022-10-30T18:17:40;9.93;;;7.40;;
15102;SDS011;7652;53.584;9.998;2022-10-30T18:20:43;13.00;;;7.27;;
15102;SDS011;7652;53.584;9.998;2022-10-30T18:23:47;11.77;;;7.47;;
15102;SDS011;7652;53.584;9.998;2022-10-30T18:26:55;9.67;;;7.50;;
15102;SDS011;7652;53.584;9.998;2022-10-30T18:29:58;10.93;;;6.90;;
15102;SDS011;7652;53.584;9.998;2022-10-30T18:33:02;13.77;;;8.27;;
15102;SDS011;7652;53.584;9.998;2022-10-30T18:36:09;13.00;;;8.43;;
15102;SDS011;7652;53.584;9.998;2022-10-30T18:39:13;15.03;;;8.43;;
15102;SDS011;7652;53.584;9.998;2022-10-30T18:42:18;13.90;;;10.00;;
15102;SDS011;7652;53.584;9.998;2022-10-30T18:45:22;12.30;;;9.43;;
15102;SDS011;7652;53.584;9.998;2022-10-30T18:48:26;12.30;;;8.67;;
15102;SDS011;7652;53.584;9.998;2022-10-30T18:51:29;9.77;;;7.53;;
15102;SDS011;7652;53.584;9.998;2022-10-30T18:54:32;14.90;;;10.07;;
15102;SDS011;7652;53.584;9.998;2022-10-30T18:57:36;11.70;;;8.37;;
15102;SDS011;7652;53.584;9.998;2022-10-30T19:00:39;11.60;;;8.80;;